createdAt,value
2019-02-05T00:06:34.211Z,91.99
2019-02-05T00:09:01.086Z,91.70
2019-02-05T00:11:28.256Z,90.94
2019-02-05T00:13:55.397Z,91.15
2019-02-05T00:16:22.267Z,90.79
2019-02-05T00:18:51.632Z,89.81
2019-02-05T00:21:18.029Z,91.28
2019-02-05T00:23:45.036Z,91.93
2019-02-05T00:26:11.888Z,92.49
2019-02-05T00:28:38.885Z,92.55
2019-02-05T00:31:05.723Z,92.73
2019-02-05T00:33:32.479Z,91.35
2019-02-05T00:36:11.642Z,92.38
2019-02-05T00:38:38.496Z,91.75
2019-02-05T00:41:05.647Z,90.74
2019-02-05T00:43:32.620Z,90.50
2019-02-05T00:45:59.500Z,90.52
2019-02-05T00:48:26.250Z,90.29
2019-02-05T00:50:53.127Z,89.47
2019-02-05T00:53:20.094Z,89.24
2019-02-05T00:55:46.844Z,89.63
2019-02-05T00:58:13.785Z,89.01
2019-02-05T01:00:40.908Z,88.95
2019-02-05T01:03:07.748Z,89.12
2019-02-05T01:05:35.067Z,88.39
2019-02-05T01:08:01.951Z,88.42
2019-02-05T01:10:28.795Z,88.86
2019-02-05T01:12:56.098Z,88.20
2019-02-05T01:16:03.881Z,87.04
2019-02-05T01:18:30.869Z,85.54
2019-02-05T01:20:57.919Z,87.41
2019-02-05T01:23:24.868Z,87.85
2019-02-05T01:25:51.693Z,86.05
2019-02-05T01:28:18.442Z,87.30
2019-02-05T01:30:45.184Z,87.86
2019-02-05T01:33:12.100Z,87.27
2019-02-05T01:35:38.839Z,87.37
2019-02-05T01:38:20.541Z,86.50
2019-02-05T01:40:47.380Z,86.54
2019-02-05T01:43:14.123Z,88.21
2019-02-05T01:45:41.318Z,87.01
2019-02-05T01:48:08.150Z,87.78
2019-02-05T01:50:35.007Z,87.08
2019-02-05T01:53:44.841Z,85.03
2019-02-05T01:56:11.673Z,85.78
2019-02-05T01:58:38.404Z,85.55
2019-02-05T02:01:06.050Z,85.30
2019-02-05T02:03:32.889Z,84.96
2019-02-05T02:05:59.645Z,84.57
2019-02-05T02:08:26.605Z,83.91
2019-02-05T02:10:53.354Z,84.78
2019-02-05T02:13:20.532Z,85.71
2019-02-05T02:15:47.325Z,84.94
2019-02-05T02:18:14.453Z,83.67
2019-02-05T02:20:41.203Z,84.27
2019-02-05T02:23:08.291Z,82.65
2019-02-05T02:25:35.113Z,83.92
2019-02-05T02:28:01.846Z,82.73
2019-02-05T02:30:48.541Z,81.57
2019-02-05T02:33:15.458Z,82.25
2019-02-05T02:35:42.220Z,82.29
2019-02-05T02:38:09.025Z,81.41
2019-02-05T02:40:35.832Z,82.05
2019-02-05T02:43:02.953Z,82.64
2019-02-05T02:45:29.811Z,81.27
2019-02-05T02:47:56.737Z,81.04
2019-02-05T02:50:23.790Z,79.80
2019-02-05T02:52:50.697Z,80.12
2019-02-05T02:55:17.564Z,80.72
2019-02-05T02:57:44.691Z,80.13
2019-02-05T03:00:13.999Z,81.78
2019-02-05T03:02:40.971Z,83.00
2019-02-05T03:05:31.754Z,81.79
2019-02-05T03:07:58.516Z,82.22
2019-02-05T03:10:27.055Z,82.07
2019-02-05T03:12:54.517Z,80.52
2019-02-05T03:16:02.302Z,81.11
2019-02-05T03:18:29.101Z,81.49
2019-02-05T03:20:56.251Z,82.07
2019-02-05T03:23:23.355Z,81.50
2019-02-05T03:25:50.492Z,83.41
2019-02-05T03:28:17.599Z,83.09
2019-02-05T03:30:44.625Z,83.68
2019-02-05T03:33:11.524Z,81.38
2019-02-05T03:35:38.553Z,82.62
2019-02-05T03:38:05.410Z,82.18
2019-02-05T03:43:49.318Z,82.11
2019-02-05T03:46:57.089Z,81.61
2019-02-05T03:49:23.879Z,80.77
2019-02-05T03:52:34.709Z,81.36
2019-02-05T03:55:40.760Z,82.13
2019-02-05T03:58:46.659Z,81.47
2019-02-05T04:01:52.615Z,81.80
2019-02-05T04:04:58.476Z,81.38
2019-02-05T04:07:57.408Z,81.91
2019-02-05T04:11:03.272Z,82.07
2019-02-05T04:14:09.263Z,82.09
2019-02-05T04:17:15.128Z,80.66
2019-02-05T04:20:21.383Z,81.88
2019-02-05T04:23:24.041Z,80.38
2019-02-05T04:26:30.042Z,81.43
2019-02-05T04:29:35.935Z,82.52
2019-02-05T04:32:42.157Z,80.45
2019-02-05T04:35:48.043Z,80.40
2019-02-05T04:38:54.034Z,81.26
2019-02-05T04:42:00.399Z,81.44
2019-02-05T04:45:06.720Z,81.84
2019-02-05T04:48:12.898Z,82.87
2019-02-05T04:51:18.850Z,82.52
2019-02-05T04:54:24.771Z,82.07
2019-02-05T04:57:30.763Z,82.19
2019-02-05T05:00:36.637Z,80.00
2019-02-05T05:03:22.709Z,82.45
2019-02-05T05:06:13.655Z,81.95
2019-02-05T05:09:03.944Z,84.42
2019-02-05T05:11:30.831Z,83.93
2019-02-05T05:13:57.715Z,85.69
2019-02-05T05:16:24.566Z,83.81
2019-02-05T05:18:51.354Z,85.94
2019-02-05T05:21:59.207Z,86.21
2019-02-05T05:24:26.152Z,87.94
2019-02-05T05:26:53.174Z,88.57
2019-02-05T05:29:20.001Z,88.91
2019-02-05T05:32:27.810Z,89.58
2019-02-05T05:34:55.097Z,88.73
2019-02-05T05:37:21.973Z,88.87
2019-02-05T05:39:48.761Z,88.75
2019-02-05T05:42:15.704Z,86.98
2019-02-05T05:44:44.408Z,88.89
2019-02-05T05:47:11.232Z,87.91
2019-02-05T05:49:38.465Z,88.87
2019-02-05T05:52:05.594Z,88.91
2019-02-05T05:54:32.371Z,87.66
2019-02-05T05:56:59.291Z,86.74
2019-02-05T05:59:26.479Z,86.70
2019-02-05T06:01:53.328Z,86.06
2019-02-05T06:04:20.537Z,84.81
2019-02-05T06:06:47.288Z,84.30
2019-02-05T06:09:14.397Z,83.18
2019-02-05T06:11:41.611Z,84.48
2019-02-05T06:14:08.474Z,83.35
2019-02-05T06:16:35.117Z,81.78
2019-02-05T06:19:02.207Z,80.21
2019-02-05T06:21:29.346Z,81.18
2019-02-05T06:23:56.088Z,80.96
2019-02-05T06:26:22.989Z,81.13
2019-02-05T06:28:49.632Z,82.43
2019-02-05T06:31:16.470Z,80.11
2019-02-05T06:33:43.801Z,80.65
2019-02-05T06:36:11.160Z,80.12
2019-02-05T06:38:38.002Z,80.78
2019-02-05T06:41:04.915Z,81.18
2019-02-05T06:43:32.255Z,82.33
2019-02-05T06:46:12.602Z,82.04
2019-02-05T06:48:41.197Z,80.80
2019-02-05T06:51:08.026Z,79.86
2019-02-05T06:53:34.820Z,81.89
2019-02-05T06:56:22.974Z,80.08
2019-02-05T06:58:50.110Z,79.82
2019-02-05T07:01:17.261Z,80.25
2019-02-05T07:03:43.995Z,80.64
2019-02-05T07:06:10.898Z,79.88
2019-02-05T07:08:37.727Z,79.81
2019-02-05T07:11:04.924Z,80.25
2019-02-05T07:13:31.761Z,79.27
2019-02-05T07:15:58.881Z,79.20
2019-02-05T07:18:25.613Z,79.51
2019-02-05T07:20:52.281Z,79.37
2019-02-05T07:23:19.036Z,79.12
2019-02-05T07:25:45.777Z,79.63
2019-02-05T07:28:12.569Z,79.18
2019-02-05T07:30:39.290Z,80.60
2019-02-05T07:33:06.311Z,79.78
2019-02-05T07:35:33.682Z,79.41
2019-02-05T07:38:00.864Z,80.37
2019-02-05T07:40:27.682Z,79.89
2019-02-05T07:42:54.634Z,78.38
2019-02-05T07:45:21.574Z,78.36
2019-02-05T07:47:48.514Z,79.65
2019-02-05T07:50:17.665Z,78.86
2019-02-05T07:52:44.494Z,78.75
2019-02-05T07:55:11.340Z,79.98
2019-02-05T07:57:38.207Z,80.31
2019-02-05T08:00:09.309Z,78.55
2019-02-05T08:02:36.032Z,77.31
2019-02-05T08:05:03.673Z,77.70
2019-02-05T08:07:30.522Z,77.92
2019-02-05T08:09:57.359Z,77.03
2019-02-05T08:12:24.405Z,77.28
2019-02-05T08:14:51.157Z,75.74
2019-02-05T08:17:18.110Z,75.77
2019-02-05T08:19:44.975Z,78.07
2019-02-05T08:22:12.005Z,77.60
2019-02-05T08:24:38.743Z,75.83
2019-02-05T08:27:05.577Z,75.98
2019-02-05T08:29:32.497Z,77.37
2019-02-05T08:31:59.135Z,76.26
2019-02-05T08:34:25.935Z,76.49
2019-02-05T08:36:52.813Z,76.12
2019-02-05T08:39:19.647Z,75.52
2019-02-05T08:41:47.014Z,76.73
2019-02-05T08:44:14.352Z,77.04
2019-02-05T08:46:41.186Z,77.56
2019-02-05T08:49:08.403Z,77.55
2019-02-05T08:51:35.559Z,74.97
2019-02-05T08:54:02.935Z,75.54
2019-02-05T08:56:30.451Z,74.21
2019-02-05T08:58:57.184Z,74.02
2019-02-05T09:01:24.019Z,74.16
2019-02-05T09:03:50.800Z,75.23
2019-02-05T09:06:17.647Z,75.44
2019-02-05T09:08:44.467Z,74.47
2019-02-05T09:11:11.780Z,74.95
2019-02-05T09:13:38.650Z,75.40
2019-02-05T09:16:05.494Z,74.88
2019-02-05T09:18:32.514Z,75.63
2019-02-05T09:20:59.238Z,75.66
2019-02-05T09:23:26.076Z,75.57
2019-02-05T09:25:53.085Z,76.27
2019-02-05T09:28:20.217Z,74.61
2019-02-05T09:30:47.070Z,74.33
2019-02-05T09:36:28.067Z,74.45
2019-02-05T09:38:54.714Z,74.54
2019-02-05T09:41:21.558Z,74.97
2019-02-05T09:44:07.869Z,75.16
2019-02-05T09:46:34.895Z,74.95
2019-02-05T09:49:03.813Z,75.36
2019-02-05T09:51:44.368Z,75.20
2019-02-05T09:54:11.125Z,76.05
2019-02-05T09:56:38.003Z,76.21
2019-02-05T09:59:04.950Z,76.43
2019-02-05T10:01:31.788Z,76.26
2019-02-05T10:03:59.081Z,75.19
2019-02-05T10:06:26.071Z,74.78
2019-02-05T10:08:52.955Z,73.54
2019-02-05T10:11:20.123Z,72.95
2019-02-05T10:13:47.342Z,74.72
2019-02-05T10:16:14.640Z,73.68
2019-02-05T10:18:41.483Z,74.43
2019-02-05T10:21:08.405Z,75.15
2019-02-05T10:23:35.161Z,75.72
2019-02-05T10:26:02.068Z,76.65
2019-02-05T10:28:28.928Z,76.29
2019-02-05T10:30:55.989Z,76.75
2019-02-05T10:33:22.741Z,77.40
2019-02-05T10:35:49.644Z,75.99
2019-02-05T10:38:16.514Z,76.27
2019-02-05T10:40:43.738Z,77.38
2019-02-05T10:43:10.914Z,76.99
2019-02-05T10:45:37.785Z,77.11
2019-02-05T10:51:44.480Z,76.15
2019-02-05T10:54:24.635Z,76.22
2019-02-05T10:56:51.873Z,76.83
2019-02-05T10:59:18.917Z,76.14
2019-02-05T11:01:46.336Z,76.14
2019-02-05T11:04:15.288Z,76.72
2019-02-05T11:06:42.064Z,77.15
2019-02-05T11:09:09.673Z,77.34
2019-02-05T11:11:37.234Z,78.34
2019-02-05T11:14:04.241Z,78.18
2019-02-05T11:16:31.809Z,78.98
2019-02-05T11:18:58.752Z,78.51
2019-02-05T11:21:25.638Z,79.88
2019-02-05T11:23:56.399Z,78.27
2019-02-05T11:26:23.836Z,78.63
2019-02-05T11:28:50.755Z,78.54
2019-02-05T11:31:17.701Z,79.66
2019-02-05T11:33:45.019Z,78.46
2019-02-05T11:36:12.236Z,78.79
2019-02-05T11:38:39.090Z,78.61
2019-02-05T11:41:06.011Z,78.95
2019-02-05T11:43:33.218Z,78.84
2019-02-05T11:46:00.187Z,79.91
2019-02-05T11:48:27.121Z,78.90
2019-02-05T11:50:55.176Z,79.91
2019-02-05T11:53:22.496Z,79.18
2019-02-05T11:55:50.026Z,81.08
2019-02-05T11:58:16.958Z,80.53
2019-02-05T12:01:03.547Z,81.16
2019-02-05T12:03:30.379Z,80.62
2019-02-05T12:05:57.108Z,80.27
2019-02-05T12:08:24.168Z,80.84
2019-02-05T12:10:51.444Z,79.83
2019-02-05T12:13:18.590Z,79.97
2019-02-05T12:15:46.121Z,80.97
2019-02-05T12:18:13.306Z,80.62
2019-02-05T12:20:41.966Z,80.64
2019-02-05T12:23:08.848Z,81.03
2019-02-05T12:25:35.946Z,81.21
2019-02-05T12:30:57.526Z,81.10
2019-02-05T12:33:27.746Z,82.17
2019-02-05T12:35:55.019Z,81.58
2019-02-05T12:38:41.410Z,82.32
2019-02-05T12:41:08.857Z,80.78
2019-02-05T12:43:36.157Z,81.19
2019-02-05T12:46:04.388Z,80.29
2019-02-05T12:48:32.268Z,81.50
2019-02-05T12:50:59.908Z,81.39
2019-02-05T12:53:26.818Z,80.88
2019-02-05T12:55:53.557Z,81.00
2019-02-05T12:58:20.460Z,82.52
2019-02-05T13:00:58.684Z,82.76
2019-02-05T13:03:18.739Z,81.70
2019-02-05T13:05:45.682Z,82.20
2019-02-05T13:08:12.706Z,82.16
2019-02-05T13:10:41.850Z,81.66
2019-02-05T13:13:09.267Z,82.85
2019-02-05T13:15:36.166Z,82.05
2019-02-05T13:18:24.362Z,83.53
2019-02-05T13:20:51.225Z,82.65
2019-02-05T13:23:18.129Z,82.49
2019-02-05T13:25:45.153Z,83.17
2019-02-05T13:28:12.912Z,82.56
2019-02-05T13:30:39.754Z,82.67
2019-02-05T13:33:26.204Z,83.10
2019-02-05T13:35:53.219Z,83.20
2019-02-05T13:38:20.389Z,82.89
2019-02-05T13:40:47.739Z,82.66
2019-02-05T13:43:14.589Z,83.53
2019-02-05T13:45:41.808Z,84.73
2019-02-05T13:48:09.142Z,83.87
2019-02-05T13:50:36.111Z,83.89
2019-02-05T13:53:03.258Z,84.30
2019-02-05T13:56:12.073Z,85.43
2019-02-05T13:58:38.807Z,85.42
2019-02-05T14:01:05.704Z,86.35
2019-02-05T14:03:32.495Z,86.15
2019-02-05T14:05:59.318Z,86.39
2019-02-05T14:08:26.071Z,85.97
2019-02-05T14:11:33.907Z,86.52
2019-02-05T14:14:00.530Z,87.65
2019-02-05T14:16:47.514Z,86.41
2019-02-05T14:19:14.570Z,86.59
2019-02-05T14:21:41.989Z,87.07
2019-02-05T14:24:09.207Z,87.83
2019-02-05T14:26:36.629Z,87.56
2019-02-05T14:29:03.542Z,88.07
2019-02-05T14:31:31.693Z,87.80
2019-02-05T14:33:58.634Z,88.81
2019-02-05T14:36:25.722Z,88.38
2019-02-05T14:38:52.750Z,88.70
2019-02-05T14:41:19.804Z,89.42
2019-02-05T14:43:46.688Z,88.06
2019-02-05T14:46:13.669Z,88.20
2019-02-05T14:48:40.591Z,88.83
2019-02-05T14:51:07.481Z,89.02
2019-02-05T14:53:34.523Z,88.25
2019-02-05T14:56:03.478Z,89.17
2019-02-05T14:58:30.310Z,90.21
2019-02-05T15:00:57.206Z,89.43
2019-02-05T15:03:24.122Z,89.85
2019-02-05T15:05:51.129Z,89.61
2019-02-05T15:08:18.472Z,90.36
2019-02-05T15:10:45.354Z,90.83
2019-02-05T15:13:12.418Z,90.04
2019-02-05T15:15:39.781Z,90.80
2019-02-05T15:18:09.216Z,91.37
2019-02-05T15:20:41.488Z,92.11
2019-02-05T15:23:08.900Z,92.40
2019-02-05T15:25:35.885Z,92.57
2019-02-05T15:30:56.938Z,92.46
2019-02-05T15:33:43.293Z,92.39
2019-02-05T15:36:31.594Z,92.59
2019-02-05T15:38:58.869Z,93.28
2019-02-05T15:41:25.691Z,94.08
2019-02-05T15:43:52.748Z,93.80
2019-02-05T15:46:20.101Z,93.57
2019-02-05T15:48:47.225Z,93.93
2019-02-05T15:51:14.178Z,93.47
2019-02-05T15:53:41.006Z,92.98
2019-02-05T15:56:07.836Z,93.71
2019-02-05T15:58:34.609Z,93.25
2019-02-05T16:01:01.326Z,92.18
2019-02-05T16:03:28.038Z,92.03
2019-02-05T16:05:55.076Z,91.74
2019-02-05T16:08:21.990Z,91.94
2019-02-05T16:10:48.982Z,91.30
2019-02-05T16:13:15.763Z,91.39
2019-02-05T16:15:42.750Z,91.82
2019-02-05T16:18:09.472Z,91.53
2019-02-05T16:20:36.610Z,91.60
2019-02-05T16:23:03.544Z,91.42
2019-02-05T16:25:30.492Z,91.41
2019-02-05T16:27:57.334Z,91.82
2019-02-05T16:30:24.338Z,91.71
2019-02-05T16:32:51.144Z,91.73
2019-02-05T16:35:17.916Z,91.77
2019-02-05T16:37:45.185Z,92.19
2019-02-05T16:40:15.139Z,92.61
2019-02-05T16:42:42.218Z,91.76
2019-02-05T16:45:12.834Z,92.07
2019-02-05T16:47:39.549Z,91.49
2019-02-05T16:50:10.947Z,91.63
2019-02-05T16:52:37.658Z,91.96
2019-02-05T16:55:04.919Z,91.97
2019-02-05T16:57:31.722Z,92.20
2019-02-05T16:59:58.555Z,91.72
2019-02-05T17:02:29.031Z,92.00
2019-02-05T17:04:54.074Z,91.89
2019-02-05T17:07:33.646Z,91.90
2019-02-05T17:10:00.494Z,91.89
2019-02-05T17:12:27.229Z,92.25
2019-02-05T17:14:54.060Z,92.25
2019-02-05T17:17:21.147Z,92.01
2019-02-05T17:19:48.172Z,92.36
2019-02-05T17:22:15.187Z,92.61
2019-02-05T17:24:42.514Z,92.64
2019-02-05T17:27:09.807Z,92.85
2019-02-05T17:29:36.972Z,92.75
2019-02-05T17:32:03.865Z,92.61
2019-02-05T17:34:50.122Z,92.10
2019-02-05T17:37:17.104Z,92.53
2019-02-05T17:39:44.081Z,92.17
2019-02-05T17:42:10.797Z,92.07
2019-02-05T17:44:37.470Z,92.27
2019-02-05T17:47:04.577Z,92.13
2019-02-05T17:49:33.211Z,92.67
2019-02-05T17:52:00.079Z,91.68
2019-02-05T17:54:26.879Z,92.13
2019-02-05T17:56:53.979Z,91.96
2019-02-05T17:59:21.034Z,92.68
2019-02-05T18:01:48.049Z,92.69
2019-02-05T18:04:14.788Z,93.02
2019-02-05T18:06:41.717Z,93.14
2019-02-05T18:09:08.800Z,93.21
2019-02-05T18:11:35.518Z,93.36
2019-02-05T18:14:02.527Z,93.92
2019-02-05T18:16:29.151Z,94.13
2019-02-05T18:18:56.137Z,95.10
2019-02-05T18:21:23.185Z,96.20
2019-02-05T18:23:50.118Z,97.01
2019-02-05T18:26:17.678Z,97.83
2019-02-05T18:28:44.478Z,95.45
2019-02-05T18:31:11.406Z,95.45
2019-02-05T18:33:38.572Z,94.95
2019-02-05T18:36:05.929Z,96.01
2019-02-05T18:38:32.885Z,96.07
2019-02-05T18:40:59.661Z,97.15
2019-02-05T18:43:26.823Z,96.52
2019-02-05T18:45:53.624Z,97.32
2019-02-05T18:48:20.342Z,97.12
2019-02-05T18:50:47.112Z,96.37
2019-02-05T18:53:14.147Z,96.92
2019-02-05T18:55:41.055Z,97.77
2019-02-05T18:58:09.719Z,97.74
2019-02-05T19:00:38.895Z,97.02
2019-02-05T19:03:15.000Z,97.96
2019-02-05T19:05:36.789Z,98.51
2019-02-05T19:08:04.822Z,98.08
2019-02-05T19:10:53.075Z,98.27
2019-02-05T19:13:20.392Z,97.25
2019-02-05T19:15:47.525Z,98.02
2019-02-05T19:18:14.817Z,98.03
2019-02-05T19:20:41.779Z,97.10
2019-02-05T19:23:09.013Z,97.26
2019-02-05T19:25:55.546Z,98.64
2019-02-05T19:28:42.293Z,99.43
2019-02-05T19:31:28.848Z,99.60
2019-02-05T19:33:56.014Z,99.05
2019-02-05T19:36:24.647Z,99.33
2019-02-05T19:38:51.524Z,98.68
2019-02-05T19:41:18.396Z,99.16
2019-02-05T19:43:45.663Z,98.52
2019-02-05T19:46:32.108Z,98.70
2019-02-05T19:49:21.742Z,97.70
2019-02-05T19:51:47.303Z,98.69
2019-02-05T19:54:14.522Z,98.12
2019-02-05T19:56:41.704Z,97.89
2019-02-05T19:59:10.612Z,98.02
2019-02-05T20:01:38.087Z,97.85
2019-02-05T20:04:05.597Z,98.71
2019-02-05T20:06:32.537Z,98.86
2019-02-05T20:09:01.342Z,98.63
2019-02-05T20:11:28.508Z,99.16
2019-02-05T20:13:55.296Z,99.63
2019-02-05T20:16:22.042Z,97.98
2019-02-05T20:18:48.947Z,97.96
2019-02-05T20:21:16.278Z,97.67
2019-02-05T20:23:42.999Z,97.03
2019-02-05T20:26:09.999Z,97.47
2019-02-05T20:28:38.906Z,96.84
2019-02-05T20:31:06.030Z,97.71
2019-02-05T20:33:32.758Z,96.72
2019-02-05T20:35:59.664Z,95.88
2019-02-05T20:38:26.484Z,96.92
2019-02-05T20:40:53.520Z,96.68
2019-02-05T20:43:20.420Z,97.45
2019-02-05T20:45:47.544Z,97.69
2019-02-05T20:48:16.268Z,96.78
2019-02-05T20:50:43.089Z,96.07
2019-02-05T20:53:14.114Z,95.87
2019-02-05T20:55:38.885Z,96.31
2019-02-05T20:58:05.750Z,95.71
2019-02-05T21:00:32.604Z,95.74
2019-02-05T21:02:59.711Z,95.28
2019-02-05T21:05:26.606Z,95.68
2019-02-05T21:07:53.629Z,94.78
2019-02-05T21:10:21.195Z,95.46
2019-02-05T21:12:48.521Z,95.13
2019-02-05T21:15:15.608Z,94.36
2019-02-05T21:17:42.441Z,94.95
2019-02-05T21:20:11.035Z,94.24
2019-02-05T21:22:39.785Z,94.49
2019-02-05T21:28:10.000Z,94.76
2019-02-05T21:30:37.243Z,94.04
2019-02-05T21:33:04.043Z,93.58
2019-02-05T21:35:31.235Z,93.22
2019-02-05T21:37:59.041Z,94.63
2019-02-05T21:40:26.046Z,93.10
2019-02-05T21:42:53.960Z,93.21
2019-02-05T21:45:22.051Z,93.51
2019-02-05T21:47:56.896Z,93.42
2019-02-05T21:50:24.132Z,94.46
2019-02-05T21:52:51.691Z,93.92
2019-02-05T21:55:19.316Z,93.70
2019-02-05T21:57:46.684Z,93.10
2019-02-05T22:00:17.157Z,93.03
2019-02-05T22:02:44.916Z,93.52
2019-02-05T22:05:11.920Z,94.27
2019-02-05T22:07:39.030Z,94.00
2019-02-05T22:10:06.141Z,95.22
2019-02-05T22:12:32.926Z,96.01
2019-02-05T22:15:12.445Z,94.59
2019-02-05T22:17:39.581Z,94.40
2019-02-05T22:20:09.593Z,95.68
2019-02-05T22:22:36.648Z,96.96
2019-02-05T22:25:09.959Z,97.23
2019-02-05T22:27:37.388Z,98.00
2019-02-05T22:30:28.320Z,96.83
2019-02-05T22:33:37.292Z,97.28
2019-02-05T22:36:05.676Z,95.15
2019-02-05T22:38:33.551Z,96.00
2019-02-05T22:41:00.867Z,96.74
2019-02-05T22:43:28.066Z,97.53
2019-02-05T22:45:55.664Z,96.01
2019-02-05T22:48:25.439Z,96.69
2019-02-05T22:50:52.463Z,97.28
2019-02-05T22:53:20.076Z,97.03
2019-02-05T22:55:48.056Z,97.62
2019-02-05T22:58:15.512Z,97.66
2019-02-05T23:01:21.368Z,97.07
2019-02-05T23:04:09.988Z,98.01
2019-02-05T23:06:58.791Z,95.24
2019-02-05T23:10:04.775Z,96.21
2019-02-05T23:12:56.538Z,97.13
2019-02-05T23:15:25.062Z,96.58
2019-02-05T23:17:53.835Z,97.03
2019-02-05T23:20:21.770Z,94.66
2019-02-05T23:22:49.148Z,94.45
2019-02-05T23:25:15.975Z,93.68
2019-02-05T23:27:42.803Z,93.66
2019-02-05T23:30:29.327Z,94.47
2019-02-05T23:32:56.708Z,94.54
2019-02-05T23:35:25.377Z,93.38
2019-02-05T23:37:52.165Z,93.94
2019-02-05T23:40:18.987Z,93.19
2019-02-05T23:42:45.758Z,94.48
2019-02-05T23:46:01.460Z,94.77
2019-02-05T23:48:22.683Z,93.21
2019-02-05T23:50:49.615Z,91.85
2019-02-05T23:53:16.437Z,92.62
2019-02-05T23:55:43.188Z,93.48
2019-02-05T23:58:10.219Z,91.81
